VYMD/MDL METAR and TAF weather

Enter ICAO airport designator
Station Type Date Time Source
VYMD METAR 2019/05/23 18:30 UTC NOAA

VYMD 231830Z 16008KT 5000 BKN020 FEW025CB BKN100 27/23 Q1006 NOSIG


Station Type Date Time Source
VYMD Decoded METAR 2019/05/23 18:30 UTC NOAA

Station name not available
May 23, 2019 - 02:30 PM EDT / 2019.05.23 1830 UTC
Wind: from the SSE (160 degrees) at 9 MPH (8 KT):0
Visibility: 3 mile(s):0
Sky conditions: mostly cloudy
Weather: Cumulonimbus clouds observed
Temperature: 80 F (27 C)
Dew Point: 73 F (23 C)
Relative Humidity: 78%
Pressure (altimeter): 29.71 in. Hg (1006 hPa)
ob: VYMD 231830Z 16008KT 5000 BKN020 FEW025CB BKN100 27/23 Q1006 NOSIG
cycle: 18

Station Type Date Time Source
VYMD TAF 2019/05/23 18:00 UTC NOAA

TAF VYMD 231700Z 2318/2418 13010KT 6000 SCT020 SCT120
TEMPO 2318/2324 04008G16KT 5000 -TSRA BKN018 FEW020CB BKN110

Example: see airport list